createdAt,value
2023-01-08T00:00:52.700Z,100515.56
2023-01-08T00:03:56.028Z,100510.84
2023-01-08T00:06:59.124Z,100512.78
2023-01-08T00:10:05.175Z,100514.00
2023-01-08T00:13:08.407Z,100508.59
2023-01-08T00:16:14.213Z,100503.38
2023-01-08T00:19:16.979Z,100510.50
2023-01-08T00:22:22.767Z,100505.72
2023-01-08T00:25:25.498Z,100509.72
2023-01-08T00:28:28.496Z,100510.16
2023-01-08T00:31:34.202Z,100503.44
2023-01-08T00:34:37.117Z,100500.59
2023-01-08T00:37:40.024Z,100500.09
2023-01-08T00:40:42.803Z,100498.16
2023-01-08T00:43:45.511Z,100501.22
2023-01-08T00:46:48.299Z,100490.63
2023-01-08T00:49:51.875Z,100492.16
2023-01-08T00:52:54.671Z,100486.66
2023-01-08T00:56:05.666Z,100483.63
2023-01-08T00:59:08.463Z,100486.12
2023-01-08T01:02:11.368Z,100491.91
2023-01-08T01:05:17.755Z,100488.34
2023-01-08T01:08:20.934Z,100483.66
2023-01-08T01:11:25.760Z,100477.34
2023-01-08T01:14:28.543Z,100481.34
2023-01-08T01:17:31.771Z,100471.31
2023-01-08T01:20:34.595Z,100477.22
2023-01-08T01:23:37.687Z,100482.22
2023-01-08T01:26:41.441Z,100482.91
2023-01-08T01:29:44.446Z,100477.41
2023-01-08T01:32:47.200Z,100465.72
2023-01-08T01:35:49.937Z,100453.31
2023-01-08T01:38:54.808Z,100449.59
2023-01-08T01:41:57.557Z,100439.41
2023-01-08T01:45:00.529Z,100433.50
2023-01-08T01:48:07.121Z,100439.28
2023-01-08T01:51:10.000Z,100434.75
2023-01-08T01:54:13.601Z,100426.06
2023-01-08T01:57:16.315Z,100438.88
2023-01-08T02:00:19.456Z,100439.69
2023-01-08T02:03:24.701Z,100442.03
2023-01-08T02:06:27.566Z,100443.13
2023-01-08T02:09:44.063Z,100443.13
2023-01-08T02:12:52.164Z,100432.94
2023-01-08T02:15:54.863Z,100440.37
2023-01-08T02:19:02.857Z,100432.12
2023-01-08T02:22:17.560Z,100432.69
2023-01-08T02:25:35.571Z,100428.81
2023-01-08T02:28:52.160Z,100422.63
2023-01-08T02:31:55.735Z,100418.88
2023-01-08T02:34:58.519Z,100441.16
2023-01-08T02:38:01.302Z,100437.16
2023-01-08T02:41:10.678Z,100431.09
2023-01-08T02:44:18.534Z,100427.94
2023-01-08T02:47:45.705Z,100433.31
2023-01-08T02:51:12.869Z,100423.13
2023-01-08T02:54:19.528Z,100412.25
2023-01-08T02:57:22.391Z,100399.59
2023-01-08T03:00:25.549Z,100401.94
2023-01-08T03:03:29.655Z,100411.81
2023-01-08T03:06:32.573Z,100398.47
2023-01-08T03:09:35.932Z,100393.66
2023-01-08T03:12:49.017Z,100390.09
2023-01-08T03:15:55.212Z,100381.44
2023-01-08T03:19:22.606Z,100382.53
2023-01-08T03:22:25.466Z,100380.72
2023-01-08T03:25:30.639Z,100381.97
2023-01-08T03:28:43.502Z,100382.66
2023-01-08T03:31:47.140Z,100380.03
2023-01-08T03:34:51.344Z,100386.78
2023-01-08T03:38:21.671Z,100386.22
2023-01-08T03:41:28.691Z,100385.25
2023-01-08T03:44:31.398Z,100379.87
2023-01-08T03:47:35.104Z,100374.94
2023-01-08T03:50:37.812Z,100376.13
2023-01-08T03:53:40.518Z,100375.84
2023-01-08T03:56:43.420Z,100356.88
2023-01-08T03:59:46.552Z,100365.25
2023-01-08T04:02:49.579Z,100362.78
2023-01-08T04:05:52.333Z,100350.00
2023-01-08T04:12:02.433Z,100362.47
2023-01-08T04:15:05.544Z,100362.87
2023-01-08T04:18:08.339Z,100362.72
2023-01-08T04:21:11.103Z,100358.84
2023-01-08T04:24:16.912Z,100352.53
2023-01-08T04:27:19.696Z,100350.81
2023-01-08T04:30:22.398Z,100345.87
2023-01-08T04:33:25.848Z,100344.31
2023-01-08T04:36:28.563Z,100343.03
2023-01-08T04:39:31.285Z,100327.91
2023-01-08T04:42:34.039Z,100340.97
2023-01-08T04:45:36.691Z,100334.34
2023-01-08T04:48:39.607Z,100340.97
2023-01-08T04:51:42.320Z,100340.31
2023-01-08T04:54:47.892Z,100334.25
2023-01-08T04:57:50.667Z,100327.38
2023-01-08T05:00:53.416Z,100332.88
2023-01-08T05:04:01.735Z,100324.87
2023-01-08T05:07:05.142Z,100333.81
2023-01-08T05:10:08.397Z,100323.25
2023-01-08T05:13:11.166Z,100325.16
2023-01-08T05:16:13.907Z,100315.25
2023-01-08T05:19:18.127Z,100322.00
2023-01-08T05:22:20.840Z,100330.12
2023-01-08T05:25:23.569Z,100334.09
2023-01-08T05:28:26.945Z,100318.81
2023-01-08T05:31:30.087Z,100311.53
2023-01-08T05:34:32.892Z,100320.75
2023-01-08T05:37:35.973Z,100316.75
2023-01-08T05:40:38.714Z,100320.22
2023-01-08T05:43:41.533Z,100325.69
2023-01-08T05:46:44.313Z,100325.75
2023-01-08T05:49:47.072Z,100322.31
2023-01-08T05:52:49.755Z,100323.12
2023-01-08T05:55:52.567Z,100333.69
2023-01-08T05:58:56.170Z,100335.50
2023-01-08T06:01:59.270Z,100325.47
2023-01-08T06:05:02.175Z,100306.25
2023-01-08T06:08:07.711Z,100304.03
2023-01-08T06:11:12.247Z,100304.84
2023-01-08T06:14:16.394Z,100309.94
2023-01-08T06:17:19.160Z,100307.72
2023-01-08T06:20:21.980Z,100301.69
2023-01-08T06:23:24.810Z,100297.72
2023-01-08T06:26:27.691Z,100299.22
2023-01-08T06:29:30.430Z,100295.94
2023-01-08T06:32:33.257Z,100301.56
2023-01-08T06:35:35.964Z,100290.44
2023-01-08T06:38:38.785Z,100280.38
2023-01-08T06:41:41.608Z,100274.78
2023-01-08T06:44:44.617Z,100277.41
2023-01-08T06:47:47.465Z,100278.06
2023-01-08T06:50:50.324Z,100280.97
2023-01-08T06:53:53.077Z,100276.28
2023-01-08T06:56:55.832Z,100280.41
2023-01-08T06:59:58.634Z,100274.63
2023-01-08T07:03:01.652Z,100272.47
2023-01-08T07:06:04.862Z,100267.81
2023-01-08T07:09:07.746Z,100259.41
2023-01-08T07:12:14.506Z,100255.00
2023-01-08T07:15:17.534Z,100266.97
2023-01-08T07:18:20.349Z,100260.41
2023-01-08T07:21:25.938Z,100267.00
2023-01-08T07:24:28.797Z,100262.91
2023-01-08T07:27:31.725Z,100264.53
2023-01-08T07:30:34.576Z,100273.38
2023-01-08T07:33:37.342Z,100268.72
2023-01-08T07:36:40.237Z,100269.81
2023-01-08T07:39:43.674Z,100265.72
2023-01-08T07:42:46.476Z,100272.03
2023-01-08T07:45:49.801Z,100272.31
2023-01-08T07:48:52.610Z,100270.28
2023-01-08T07:51:55.448Z,100268.22
2023-01-08T07:54:58.705Z,100259.44
2023-01-08T07:58:01.520Z,100265.59
2023-01-08T08:01:06.818Z,100246.75
2023-01-08T08:04:09.585Z,100241.25
2023-01-08T08:07:12.341Z,100241.09
2023-01-08T08:10:15.231Z,100232.84
2023-01-08T08:13:18.044Z,100225.28
2023-01-08T08:16:21.086Z,100220.47
2023-01-08T08:19:24.094Z,100220.84
2023-01-08T08:22:27.660Z,100216.31
2023-01-08T08:25:32.215Z,100213.41
2023-01-08T08:28:35.752Z,100218.59
2023-01-08T08:31:38.749Z,100214.41
2023-01-08T08:34:41.528Z,100212.41
2023-01-08T08:37:44.406Z,100200.94
2023-01-08T08:40:47.252Z,100204.88
2023-01-08T08:43:51.695Z,100199.53
2023-01-08T08:46:56.069Z,100199.91
2023-01-08T08:50:11.140Z,100189.87
2023-01-08T08:53:27.826Z,100193.59
2023-01-08T08:56:32.009Z,100178.88
2023-01-08T08:59:35.326Z,100172.50
2023-01-08T09:02:44.307Z,100184.16
2023-01-08T09:05:49.294Z,100172.19
2023-01-08T09:08:52.660Z,100182.22
2023-01-08T09:11:57.542Z,100172.78
2023-01-08T09:15:00.568Z,100178.12
2023-01-08T09:18:04.318Z,100182.25
2023-01-08T09:21:08.368Z,100167.28
2023-01-08T09:24:12.451Z,100170.31
2023-01-08T09:27:15.816Z,100164.78
2023-01-08T09:30:19.130Z,100163.34
2023-01-08T09:33:22.228Z,100149.81
2023-01-08T09:36:25.619Z,100150.69
2023-01-08T09:39:28.728Z,100144.88
2023-01-08T09:42:32.272Z,100143.25
2023-01-08T09:45:37.631Z,100136.63
2023-01-08T09:48:42.195Z,100132.94
2023-01-08T09:51:45.233Z,100122.09
2023-01-08T09:54:57.527Z,100116.53
2023-01-08T09:58:03.435Z,100108.81
2023-01-08T10:01:07.728Z,100112.91
2023-01-08T10:04:22.544Z,100102.38
2023-01-08T10:07:28.243Z,100114.25
2023-01-08T10:10:32.405Z,100098.78
2023-01-08T10:13:38.606Z,100092.22
2023-01-08T10:16:42.645Z,100077.81
2023-01-08T10:19:46.170Z,100071.91
2023-01-08T10:22:56.711Z,100064.94
2023-01-08T10:26:01.974Z,100056.28
2023-01-08T10:29:15.790Z,100051.13
2023-01-08T10:32:34.881Z,100050.50
2023-01-08T10:35:42.249Z,100035.56
2023-01-08T10:39:01.815Z,100029.88
2023-01-08T10:42:06.672Z,100026.34
2023-01-08T10:45:20.948Z,100017.97
2023-01-08T10:48:28.063Z,100000.47
2023-01-08T10:51:36.957Z,100006.41
2023-01-08T10:54:41.036Z,100006.94
2023-01-08T10:57:57.672Z,100003.84
2023-01-08T11:01:31.189Z,99990.41
2023-01-08T11:04:40.949Z,99979.25
2023-01-08T11:07:43.920Z,99986.81
2023-01-08T11:10:57.795Z,99981.72
2023-01-08T11:14:02.884Z,99972.88
2023-01-08T11:17:16.659Z,99978.94
2023-01-08T11:20:24.331Z,99966.44
2023-01-08T11:23:28.242Z,99949.00
2023-01-08T11:26:31.564Z,99950.78
2023-01-08T11:29:39.561Z,99953.88
2023-01-08T11:33:04.398Z,99946.09
2023-01-08T11:36:10.687Z,99946.97
2023-01-08T11:39:14.454Z,99941.00
2023-01-08T11:43:11.676Z,99935.69
2023-01-08T11:46:32.961Z,99927.75
2023-01-08T11:50:06.995Z,99926.41
2023-01-08T11:53:13.143Z,99928.62
2023-01-08T11:57:14.982Z,99927.19
2023-01-08T12:00:37.386Z,99920.47
2023-01-08T12:03:51.008Z,99915.19
2023-01-08T12:06:56.909Z,99922.22
2023-01-08T12:10:32.514Z,99915.34
2023-01-08T12:14:00.685Z,99910.91
2023-01-08T12:17:30.575Z,99909.25
2023-01-08T12:20:55.171Z,99901.53
2023-01-08T12:24:30.876Z,99908.50
2023-01-08T12:27:58.602Z,99900.34
2023-01-08T12:31:33.559Z,99891.09
2023-01-08T12:34:51.774Z,99886.97
2023-01-08T12:38:14.072Z,99887.25
2023-01-08T12:41:19.765Z,99883.69
2023-01-08T12:44:26.367Z,99885.63
2023-01-08T12:47:52.916Z,99883.00
2023-01-08T12:51:19.110Z,99870.78
2023-01-08T12:54:46.229Z,99866.47
2023-01-08T12:58:00.277Z,99866.69
2023-01-08T13:01:26.690Z,99866.00
2023-01-08T13:04:48.972Z,99856.03
2023-01-08T13:08:01.473Z,99859.88
2023-01-08T13:11:05.372Z,99857.34
2023-01-08T13:14:11.271Z,99850.56
2023-01-08T13:17:21.593Z,99844.28
2023-01-08T13:20:32.426Z,99846.41
2023-01-08T13:23:36.427Z,99834.97
2023-01-08T13:26:39.240Z,99838.34
2023-01-08T13:29:43.416Z,99837.34
2023-01-08T13:32:48.743Z,99836.91
2023-01-08T13:35:51.631Z,99834.66
2023-01-08T13:39:05.056Z,99839.53
2023-01-08T13:42:28.770Z,99842.31
2023-01-08T13:45:32.028Z,99837.91
2023-01-08T13:48:49.829Z,99834.13
2023-01-08T13:51:59.337Z,99835.47
2023-01-08T13:55:05.520Z,99837.00
2023-01-08T13:58:20.011Z,99836.38
2023-01-08T14:01:24.081Z,99837.94
2023-01-08T14:04:27.459Z,99836.50
2023-01-08T14:07:33.610Z,99829.06
2023-01-08T14:10:37.664Z,99829.69
2023-01-08T14:13:40.969Z,99823.78
2023-01-08T14:16:44.283Z,99836.19
2023-01-08T14:19:47.463Z,99826.31
2023-01-08T14:22:52.017Z,99834.59
2023-01-08T14:29:50.323Z,99850.69
2023-01-08T14:32:58.245Z,99849.69
2023-01-08T14:36:03.052Z,99844.56
2023-01-08T14:39:13.383Z,99844.41
2023-01-08T14:42:38.900Z,99843.03
2023-01-08T14:45:47.501Z,99847.53
2023-01-08T14:48:50.760Z,99861.78
2023-01-08T14:51:55.017Z,99852.53
2023-01-08T14:56:10.078Z,99853.63
2023-01-08T14:59:20.159Z,99846.16
2023-01-08T15:02:34.853Z,99848.13
2023-01-08T15:05:37.816Z,99848.75
2023-01-08T15:08:43.701Z,99834.84
2023-01-08T15:11:55.769Z,99846.47
2023-01-08T15:15:12.738Z,99852.31
2023-01-08T15:18:16.152Z,99852.62
2023-01-08T15:21:23.490Z,99854.84
2023-01-08T15:24:38.665Z,99856.06
2023-01-08T15:27:42.999Z,99855.47
2023-01-08T15:30:46.731Z,99858.97
2023-01-08T15:33:49.547Z,99857.13
2023-01-08T15:36:52.383Z,99856.22
2023-01-08T15:39:55.927Z,99853.03
2023-01-08T15:43:11.163Z,99862.41
2023-01-08T15:46:15.129Z,99860.16
2023-01-08T15:49:21.283Z,99857.50
2023-01-08T15:52:29.809Z,99857.53
2023-01-08T15:55:32.800Z,99858.34
2023-01-08T15:58:35.595Z,99857.97
2023-01-08T16:01:38.938Z,99857.13
2023-01-08T16:04:41.810Z,99861.34
2023-01-08T16:07:47.937Z,99858.88
2023-01-08T16:10:54.441Z,99860.12
2023-01-08T16:13:57.284Z,99863.84
2023-01-08T16:17:01.732Z,99854.63
2023-01-08T16:20:31.634Z,99872.44
2023-01-08T16:23:38.171Z,99866.09
2023-01-08T16:26:41.239Z,99869.91
2023-01-08T16:29:44.453Z,99874.91
2023-01-08T16:32:51.681Z,99876.47
2023-01-08T16:36:02.569Z,99870.19
2023-01-08T16:39:05.847Z,99870.06
2023-01-08T16:42:16.859Z,99876.38
2023-01-08T16:45:19.875Z,99872.72
2023-01-08T16:48:26.633Z,99878.97
2023-01-08T16:51:31.627Z,99874.62
2023-01-08T16:54:34.557Z,99869.63
2023-01-08T16:57:37.619Z,99880.44
2023-01-08T17:00:40.894Z,99878.81
2023-01-08T17:03:44.843Z,99882.31
2023-01-08T17:06:47.894Z,99872.37
2023-01-08T17:09:51.223Z,99874.34
2023-01-08T17:12:55.398Z,99879.63
2023-01-08T17:15:59.882Z,99877.94
2023-01-08T17:19:03.023Z,99878.37
2023-01-08T17:22:05.730Z,99885.16
2023-01-08T17:25:11.673Z,99875.28
2023-01-08T17:28:14.591Z,99875.47
2023-01-08T17:31:19.696Z,99867.25
2023-01-08T17:34:22.764Z,99875.34
2023-01-08T17:37:26.097Z,99874.38
2023-01-08T17:40:29.697Z,99884.84
2023-01-08T17:43:37.210Z,99888.81
2023-01-08T17:46:44.052Z,99894.03
2023-01-08T17:49:54.802Z,99892.81
2023-01-08T17:53:00.628Z,99892.94
2023-01-08T17:56:06.545Z,99893.75
2023-01-08T17:59:14.901Z,99889.91
2023-01-08T18:02:18.477Z,99886.75
2023-01-08T18:05:22.588Z,99900.75
2023-01-08T18:08:26.553Z,99899.09
2023-01-08T18:11:29.841Z,99907.88
2023-01-08T18:14:40.166Z,99914.03
2023-01-08T18:17:48.293Z,99910.47
2023-01-08T18:20:54.330Z,99914.31
2023-01-08T18:23:57.346Z,99913.62
2023-01-08T18:27:05.230Z,99917.47
2023-01-08T18:30:51.469Z,99915.81
2023-01-08T18:38:18.556Z,99911.53
2023-01-08T18:42:06.346Z,99911.53
2023-01-08T18:45:14.561Z,99910.53
2023-01-08T18:48:19.385Z,99910.66
2023-01-08T18:51:25.854Z,99907.09
2023-01-08T18:54:29.185Z,99901.06
2023-01-08T18:57:32.051Z,99892.56
2023-01-08T19:00:38.182Z,99896.53
2023-01-08T19:03:41.162Z,99896.81
2023-01-08T19:06:45.262Z,99904.75
2023-01-08T19:09:51.691Z,99892.28
2023-01-08T19:12:55.792Z,99901.06
2023-01-08T19:16:01.283Z,99896.69
2023-01-08T19:19:04.702Z,99888.72
2023-01-08T19:22:07.793Z,99887.09
2023-01-08T19:25:15.235Z,99879.41
2023-01-08T19:28:23.093Z,99886.13
2023-01-08T19:31:26.090Z,99881.06
2023-01-08T19:34:30.546Z,99872.41
2023-01-08T19:37:33.351Z,99884.88
2023-01-08T19:40:43.965Z,99887.63
2023-01-08T19:43:53.144Z,99882.41
2023-01-08T19:47:00.351Z,99883.78
2023-01-08T19:50:10.749Z,99882.16
2023-01-08T19:53:14.639Z,99883.78
2023-01-08T19:56:18.284Z,99897.06
2023-01-08T19:59:21.823Z,99886.37
2023-01-08T20:02:25.844Z,99872.28
2023-01-08T20:05:29.406Z,99878.84
2023-01-08T20:08:34.888Z,99873.50
2023-01-08T20:11:40.848Z,99857.59
2023-01-08T20:14:49.167Z,99866.09
2023-01-08T20:17:57.326Z,99866.09
2023-01-08T20:21:08.453Z,99860.59
2023-01-08T20:24:15.516Z,99856.09
2023-01-08T20:27:19.820Z,99855.13
2023-01-08T20:30:50.954Z,99850.34
2023-01-08T20:34:00.718Z,99844.28
2023-01-08T20:37:07.376Z,99837.50
2023-01-08T20:40:11.010Z,99831.47
2023-01-08T20:43:14.258Z,99815.25
2023-01-08T20:46:17.440Z,99832.38
2023-01-08T20:49:20.910Z,99833.84
2023-01-08T20:52:23.639Z,99829.56
2023-01-08T20:55:26.561Z,99834.50
2023-01-08T20:58:36.676Z,99826.84
2023-01-08T21:01:39.620Z,99821.13
2023-01-08T21:04:44.058Z,99819.22
2023-01-08T21:07:47.529Z,99818.50
2023-01-08T21:10:58.829Z,99809.63
2023-01-08T21:14:03.247Z,99812.38
2023-01-08T21:17:06.140Z,99804.72
2023-01-08T21:20:10.873Z,99795.13
2023-01-08T21:23:13.613Z,99800.75
2023-01-08T21:26:17.455Z,99782.97
2023-01-08T21:29:21.158Z,99770.91
2023-01-08T21:32:24.233Z,99772.13
2023-01-08T21:35:27.053Z,99757.87
2023-01-08T21:38:31.500Z,99756.66
2023-01-08T21:41:52.713Z,99747.78
2023-01-08T21:45:14.351Z,99741.87
2023-01-08T21:48:17.120Z,99757.69
2023-01-08T21:51:38.298Z,99754.28
2023-01-08T21:54:41.190Z,99752.84
2023-01-08T21:57:45.453Z,99733.69
2023-01-08T22:00:48.345Z,99737.13
2023-01-08T22:03:51.222Z,99742.16
2023-01-08T22:06:54.255Z,99727.66
2023-01-08T22:09:57.110Z,99721.22
2023-01-08T22:12:59.873Z,99712.19
2023-01-08T22:16:08.789Z,99699.06
2023-01-08T22:19:11.556Z,99694.38
2023-01-08T22:22:17.608Z,99685.59
2023-01-08T22:25:20.302Z,99688.59
2023-01-08T22:28:23.349Z,99677.88
2023-01-08T22:31:26.143Z,99678.28
2023-01-08T22:34:33.395Z,99664.84
2023-01-08T22:37:37.032Z,99666.88
2023-01-08T22:40:39.817Z,99654.16
2023-01-08T22:43:42.519Z,99653.03
2023-01-08T22:46:45.326Z,99645.38
2023-01-08T22:49:48.714Z,99640.19
2023-01-08T22:52:51.544Z,99633.22
2023-01-08T22:55:54.283Z,99626.13
2023-01-08T22:58:58.259Z,99626.66
2023-01-08T23:02:01.051Z,99627.06
2023-01-08T23:05:04.943Z,99631.31
2023-01-08T23:08:08.044Z,99614.78
2023-01-08T23:11:12.813Z,99607.13
2023-01-08T23:14:16.592Z,99607.91
2023-01-08T23:17:19.304Z,99596.84
2023-01-08T23:20:23.475Z,99591.47
2023-01-08T23:23:29.175Z,99584.13
2023-01-08T23:26:32.004Z,99562.91
2023-01-08T23:29:37.897Z,99584.66
2023-01-08T23:32:40.752Z,99578.25
2023-01-08T23:35:43.447Z,99572.94
2023-01-08T23:38:47.661Z,99564.88
2023-01-08T23:41:50.587Z,99563.66
2023-01-08T23:44:53.301Z,99560.94
2023-01-08T23:47:56.024Z,99563.12
2023-01-08T23:50:58.912Z,99550.56
2023-01-08T23:54:01.928Z,99550.31
2023-01-08T23:57:07.778Z,99542.78
